Freetown, Kentucky
Current Conditions -  °F | °C
As of 4:55 AM on Sunday 23 Nov 2014 (Local Time) from KGLW Reporting Station
Overcast Overcast  
Wind Chill: 54°   Ceiling: 5000
Heat Index: 54°   Visibility: 10mi
Dew Point: 40°   Wind: 3mph
Humidity: 60%   Direction: 150°SSE
Pressure: 29.97"   Gusts: NA
Location:  36.6549°N, 85.8315°W
Report Text: KGLW 231055Z AUTO 15003KT 10SM OVC050 12/05 A2997 RMK AO2 T01230047
Loading
Personal Weather Stations






























Interactive Weather Map New forecast layout! Learn more

10-Day Weather Forecast

Advertisements
Track Severe Weather on mobile